DW9314 Weather Reports


time (UTC)temp
C
wind
direction
speed
KPH
gust
KPH
rain 1hr
cm
rain 24hr
cm
rain mn
cm
humidity
%
barometer
mb
20211017153027 15 39 3.2 17.7 0.00 0.00 0.00 35 1008.7
20211017151527 15 76 4.8 20.9 0.00 0.00 0.00 30 1008.8
20211017150027 15 19 1.6 9.7 0.00 0.00 0.00 19 1008.9
20211017144517 13 265 3.2 20.9 0.00 0.00 0.00 3 1009.1
20211017143021 13 5 1.6 19.3 0.00 0.00 0.00 100 1009.2
20211017141503 12 298 6.4 22.5 0.00 0.00 0.00 100 1009.3
20211017140103 12 18 4.8 20.9 0.00 0.00 0.00 100 1009.2
20211017134627 11 282 1.6 9.7 0.00 0.00 0.00 100 1009.1
20211017133050 11 229 1.6 12.9 0.00 0.00 0.00 100 1009.2
20211017131540 10 273 3.2 20.9 0.00 0.00 0.00 100 1009.1
20211017130031 10 261 3.2 16.1 0.00 0.00 0.00 100 1009.1
20211017124532 10 26 0.0 11.3 0.00 0.00 0.00 100 1008.9
20211017123045 10 292 1.6 14.5 0.00 0.00 0.00 100 1008.8
20211017121549 -17 0.0 0.0 0.00 0.00 0.00 1008.6
20211017114659 -17 0.0 0.0 0.00 0.00 0.00 1008.2
20211017113130 -17 0.0 0.0 0.00 0.00 0.00 1008.1
20211017111550 -17 0.0 0.0 0.00 0.00 0.00 1008.1
20211017110050 -17 0.0 0.0 0.00 0.00 0.00 1008.0
20211017104624 -17 0.0 0.0 0.00 0.00 0.00 1008.0
20211017103117 -17 0.0 0.0 0.00 0.00 0.00 1008.1
20211017101531 -17 0.0 0.0 0.00 0.00 0.00 1007.9
20211017100148 10 280 0.0 12.9 0.00 0.00 0.00 100 1007.7
20211017094505 10 304 0.0 14.5 0.00 0.00 0.00 100 1007.6
20211017091547 10 32 1.6 9.7 0.00 0.00 0.00 100 1007.4
20211017090045 10 355 1.6 9.7 0.00 0.00 0.00 100 1007.3
20211017084531 10 235 1.6 6.4 0.00 0.00 0.00 100 1007.2
20211017083029 10 311 1.6 12.9 0.00 0.00 0.00 100 1007.1
20211017081513 10 256 3.2 8.0 0.00 0.00 0.00 100 1007.1
20211017080013 10 169 1.6 16.1 0.00 0.00 0.00 100 1007.0
20211017074503 10 27 1.6 8.0 0.00 0.00 0.00 100 1007.0
20211017073131 10 252 3.2 14.5 0.00 0.00 0.00 100 1006.8
20211017071604 10 34 0.0 9.7 0.00 0.00 0.00 100 1006.7
20211017070113 10 28 1.6 16.1 0.00 0.00 0.00 100 1006.7
20211017064602 10 248 4.8 19.3 0.00 0.00 0.00 100 1006.6
20211017063028 10 42 4.8 12.9 0.00 0.00 0.00 100 1006.6
20211017061524 11 286 1.6 12.9 0.00 0.00 0.00 100 1006.8
20211017060130 11 44 3.2 8.0 0.00 0.00 0.00 100 1006.8
20211017054614 11 28 1.6 12.9 0.00 0.00 0.00 100 1006.8
20211017053110 12 264 0.0 6.4 0.00 0.00 0.00 100 1007.0
20211017051614 12 355 1.6 9.7 0.00 0.00 0.00 100 1007.0
20211017050048 12 261 6.4 14.5 0.00 0.00 0.00 100 1006.6
20211017044555 12 54 4.8 16.1 0.00 0.00 0.00 100 1006.1
20211017043107 12 94 3.2 8.0 0.00 0.00 0.00 100 1006.2
20211017041540 12 350 0.0 6.4 0.00 0.00 0.00 100 1006.5
20211017040016 13 300 0.0 4.8 0.00 0.00 0.00 100 1006.3
20211017034623 13 321 1.6 9.7 0.00 0.00 0.00 100 1006.3
20211017033140 13 42 0.0 4.8 0.00 0.00 0.00 100 1006.0
20211017031600 13 46 0.0 8.0 0.00 0.00 0.00 100 1006.5
20211017030040 13 257 3.2 9.7 0.00 0.00 0.00 100 1006.6
20211017023134 13 330 0.0 12.9 0.00 0.00 0.00 100 1006.7
20211017021604 13 284 1.6 11.3 0.00 0.00 0.00 100 1006.5
20211017020043 13 297 1.6 12.9 0.00 0.00 0.00 100 1006.6
20211017014533 13 281 3.2 22.5 0.00 0.00 0.00 100 1007.0
20211017013016 15 300 4.8 16.1 0.00 0.00 0.00 100 1006.6
20211017011605 15 25 4.8 19.3 0.00 0.00 0.00 100 1005.8
20211017010110 16 155 1.6 12.9 0.00 0.00 0.00 100 1005.4
20211017004529 16 336 0.0 8.0 0.00 0.00 0.00 100 1005.2
20211017003024 16 24 3.2 12.9 0.00 0.00 0.00 100 1004.7
20211017001815 16 14 0.0 8.0 0.00 0.00 0.00 100 1004.7
20211016234610 16 53 0.0 9.7 0.00 0.00 0.00 100 1004.6
20211016233047 17 300 3.2 9.7 0.00 0.00 0.00 100 1004.5
20211016231550 17 18 0.0 12.9 0.00 0.00 0.00 100 1004.3
20211016230047 17 51 1.6 11.3 0.00 0.00 0.00 100 1003.8
20211016224553 18 14 8.0 19.3 0.00 0.00 0.00 100 1003.9
20211016223034 18 180 1.6 9.7 0.00 0.00 0.00 100 1003.5
20211016221508 18 206 1.6 9.7 0.00 0.00 0.00 100 1003.0
20211016220003 18 183 3.2 9.7 0.00 0.00 0.00 100 1002.3
20211016214626 18 177 1.6 12.9 0.00 0.00 0.00 100 1002.3
20211016213109 19 166 1.6 11.3 0.00 0.00 0.00 100 1002.6
20211016211521 20 182 4.8 16.1 0.00 0.00 0.00 100 1002.3
20211016210015 20 176 3.2 8.0 0.00 0.00 0.00 100 1002.5
20211016204623 21 196 3.2 12.9 0.00 0.00 0.00 100 1002.4
20211016203103 22 116 0.0 9.7 0.00 0.00 0.00 100 1002.7
20211016201527 22 76 3.2 17.7 0.00 0.00 0.00 100 1002.8
20211016200058 23 140 3.2 19.3 0.00 0.00 0.00 100 1002.8
20211016194633 24 139 4.8 14.5 0.00 0.00 0.00 100 1002.9
20211016193055 25 192 1.6 9.7 0.00 0.00 0.00 100 1003.0
20211016191607 25 168 1.6 9.7 0.00 0.00 0.00 100 1003.4
20211016190055 25 182 1.6 8.0 0.00 0.00 0.00 100 1003.6
20211016184508 24 175 1.6 8.0 0.00 0.00 0.00 100 1003.9
20211016183003 23 95 3.2 12.9 0.00 0.00 0.00 100 1003.9
20211016181721 23 181 3.2 12.9 0.00 0.00 0.00 100 1004.2
20211016180135 23 142 4.8 11.3 0.00 0.00 0.00 100 1004.3
20211016174615 23 196 1.6 8.0 0.00 0.00 0.00 100 1004.5
20211016173021 22 70 3.2 9.7 0.00 0.00 0.00 100 1004.8
20211016171520 22 157 0.0 8.0 0.00 0.00 0.00 100 1005.0
20211016170105 22 163 1.6 16.1 0.00 0.00 0.00 100 1005.4
20211016164615 23 173 1.6 8.0 0.00 0.00 0.00 100 1005.8
20211016163029 23 123 1.6 9.7 0.00 0.00 0.00 100 1006.1
20211016161537 23 164 3.2 11.3 0.00 0.00 0.00 100 1006.3
20211016160123 23 229 4.8 11.3 0.00 0.00 0.00 100 1007.0
20211016154807 22 198 3.2 17.7 0.00 0.00 0.00 100 1007.2